createdAt,value
2019-01-11T00:02:20.815Z,26.37
2019-01-11T00:07:15.163Z,27.43
2019-01-11T00:12:06.462Z,36.90
2019-01-11T00:16:57.800Z,45.33
2019-01-11T00:21:51.183Z,46.10
2019-01-11T00:26:42.541Z,33.30
2019-01-11T00:31:32.871Z,39.53
2019-01-11T00:36:26.823Z,38.93
2019-01-11T00:41:18.061Z,36.23
2019-01-11T00:46:10.170Z,30.23
2019-01-11T00:51:00.984Z,28.40
2019-01-11T00:55:51.154Z,30.10
2019-01-11T01:00:45.441Z,39.70
2019-01-11T01:05:36.228Z,45.23
2019-01-11T01:10:27.036Z,52.90
2019-01-11T01:15:17.162Z,46.43
2019-01-11T01:20:09.494Z,40.13
2019-01-11T01:25:04.295Z,38.13
2019-01-11T01:29:56.967Z,22.80
2019-01-11T01:34:47.807Z,23.00
2019-01-11T01:39:39.122Z,24.10
2019-01-11T01:44:29.719Z,21.33
2019-01-11T01:49:26.480Z,22.83
2019-01-11T01:54:15.575Z,20.90
2019-01-11T01:59:33.416Z,17.37
2019-01-11T02:04:28.817Z,18.07
2019-01-11T02:09:20.431Z,17.07
2019-01-11T02:14:12.015Z,16.03
2019-01-11T02:19:04.967Z,16.53
2019-01-11T02:23:56.689Z,16.73
2019-01-11T02:28:49.078Z,16.97
2019-01-11T02:33:40.399Z,15.80
2019-01-11T02:38:32.301Z,18.97
2019-01-11T02:43:23.314Z,18.80
2019-01-11T02:48:13.894Z,19.50
2019-01-11T02:53:07.078Z,16.63
2019-01-11T02:57:57.553Z,15.10
2019-01-11T03:02:49.144Z,12.33
2019-01-11T03:07:39.968Z,13.40
2019-01-11T03:12:58.063Z,14.97
2019-01-11T03:18:19.875Z,15.90
2019-01-11T03:23:15.134Z,21.57
2019-01-11T03:28:35.027Z,17.77
2019-01-11T03:33:29.771Z,16.13
2019-01-11T03:38:20.630Z,13.57
2019-01-11T03:43:11.922Z,12.23
2019-01-11T03:48:29.823Z,16.30
2019-01-11T03:53:24.288Z,15.63
2019-01-11T03:58:14.897Z,15.30
2019-01-11T04:03:29.058Z,20.30
2019-01-11T04:08:23.921Z,12.17
2019-01-11T04:13:15.772Z,9.83
2019-01-11T04:18:40.122Z,10.70
2019-01-11T04:23:31.402Z,11.80
2019-01-11T04:28:22.513Z,9.13
2019-01-11T04:33:13.835Z,8.30
2019-01-11T04:38:06.736Z,9.60
2019-01-11T04:42:57.516Z,6.87
2019-01-11T04:48:15.408Z,7.10
2019-01-11T04:53:09.701Z,9.20
2019-01-11T04:58:30.902Z,7.13
2019-01-11T05:03:27.708Z,5.33
2019-01-11T05:08:18.201Z,6.47
2019-01-11T05:13:42.301Z,6.63
2019-01-11T05:18:33.153Z,6.43
2019-01-11T05:23:24.170Z,6.60
2019-01-11T05:28:46.325Z,10.63
2019-01-11T05:33:41.712Z,7.50
2019-01-11T05:38:31.474Z,7.00
2019-01-11T05:43:24.690Z,8.60
2019-01-11T05:48:15.015Z,8.80
2019-01-11T05:53:07.314Z,8.37
2019-01-11T05:58:19.042Z,10.17
2019-01-11T06:03:10.630Z,11.20
2019-01-11T06:08:06.924Z,16.30
2019-01-11T06:12:57.657Z,10.40
2019-01-11T06:18:15.958Z,13.50
2019-01-11T06:23:07.691Z,14.93
2019-01-11T06:27:58.610Z,11.23
2019-01-11T06:32:51.353Z,17.67
2019-01-11T06:37:42.489Z,13.97
2019-01-11T06:42:34.560Z,15.63
2019-01-11T06:47:24.902Z,13.30
2019-01-11T06:52:17.146Z,14.87
2019-01-11T06:57:10.032Z,11.50
2019-01-11T07:02:06.340Z,14.13
2019-01-11T07:06:58.143Z,15.27
2019-01-11T07:11:48.964Z,15.33
2019-01-11T07:16:41.558Z,17.53
2019-01-11T07:21:33.169Z,19.30
2019-01-11T07:26:23.727Z,20.87
2019-01-11T07:31:17.357Z,21.20
2019-01-11T07:36:42.234Z,23.87
2019-01-11T07:41:35.103Z,20.93
2019-01-11T07:46:26.944Z,19.63
2019-01-11T07:51:19.028Z,21.27
2019-01-11T07:56:10.372Z,23.57
2019-01-11T08:01:07.303Z,17.63
2019-01-11T08:05:59.467Z,18.17
2019-01-11T08:10:53.403Z,35.40
2019-01-11T08:15:54.009Z,119.30
2019-01-11T08:20:56.010Z,24.07
2019-01-11T08:25:44.230Z,27.33
2019-01-11T08:30:36.592Z,24.07
2019-01-11T08:35:31.279Z,13.23
2019-01-11T08:40:26.121Z,24.23
2019-01-11T08:45:18.199Z,30.03
2019-01-11T08:50:15.190Z,23.63
2019-01-11T08:55:07.024Z,32.63
2019-01-11T08:59:59.695Z,20.23
2019-01-11T09:04:51.915Z,20.10
2019-01-11T09:09:42.335Z,23.73
2019-01-11T09:15:00.266Z,28.50
2019-01-11T09:19:52.158Z,31.50
2019-01-11T09:24:42.427Z,23.57
2019-01-11T09:29:35.751Z,30.73
2019-01-11T09:34:26.113Z,20.97
2019-01-11T09:39:15.862Z,30.10
2019-01-11T09:44:06.724Z,27.63
2019-01-11T09:48:57.291Z,42.93
2019-01-11T09:53:48.077Z,24.27
2019-01-11T09:58:39.200Z,32.07
2019-01-11T10:03:31.763Z,28.67
2019-01-11T10:08:22.152Z,32.47
2019-01-11T10:13:13.426Z,14.57
2019-01-11T10:18:04.983Z,14.10
2019-01-11T10:22:57.886Z,11.00
2019-01-11T10:27:50.709Z,11.17
2019-01-11T10:32:42.853Z,10.13
2019-01-11T10:37:33.778Z,9.70
2019-01-11T10:42:24.714Z,10.27
2019-01-11T10:47:16.922Z,12.00
2019-01-11T10:52:08.432Z,11.17
2019-01-11T10:56:58.994Z,10.80
2019-01-11T11:01:52.072Z,10.40
2019-01-11T11:06:42.907Z,11.97
2019-01-11T11:11:33.753Z,12.10
2019-01-11T11:16:24.314Z,14.00
2019-01-11T11:21:19.444Z,12.70
2019-01-11T11:26:09.817Z,14.50
2019-01-11T11:30:59.481Z,14.50
2019-01-11T11:35:50.237Z,15.00
2019-01-11T11:40:44.423Z,16.00
2019-01-11T11:45:35.341Z,16.50
2019-01-11T11:50:27.858Z,15.20
2019-01-11T11:55:21.031Z,16.37
2019-01-11T12:00:13.678Z,17.40
2019-01-11T12:05:04.021Z,17.17
2019-01-11T12:09:56.988Z,18.00
2019-01-11T12:14:48.221Z,16.27
2019-01-11T12:19:41.474Z,16.17
2019-01-11T12:24:32.671Z,14.93
2019-01-11T12:29:23.728Z,16.53
2019-01-11T12:34:16.381Z,16.97
2019-01-11T12:39:08.255Z,16.67
2019-01-11T12:43:59.320Z,14.93
2019-01-11T12:48:49.554Z,15.77
2019-01-11T12:53:39.906Z,16.73
2019-01-11T12:58:30.680Z,16.60
2019-01-11T13:03:21.268Z,16.43
2019-01-11T13:08:14.952Z,16.70
2019-01-11T13:13:06.971Z,15.60
2019-01-11T13:17:59.592Z,17.17
2019-01-11T13:22:50.671Z,18.80
2019-01-11T13:27:41.097Z,16.90
2019-01-11T13:32:31.291Z,16.60
2019-01-11T13:37:22.140Z,14.70
2019-01-11T13:42:13.689Z,16.20
2019-01-11T13:47:04.266Z,16.43
2019-01-11T13:51:54.558Z,28.07
2019-01-11T13:56:44.887Z,35.83
2019-01-11T14:01:36.447Z,16.70
2019-01-11T14:06:27.640Z,15.87
2019-01-11T14:11:19.196Z,24.53
2019-01-11T14:16:12.275Z,15.03
2019-01-11T14:21:03.604Z,14.67
2019-01-11T14:25:53.537Z,13.97
2019-01-11T14:30:44.791Z,16.43
2019-01-11T14:35:35.323Z,19.63
2019-01-11T14:40:26.415Z,20.10
2019-01-11T14:45:21.620Z,20.23
2019-01-11T14:50:15.225Z,17.93
2019-01-11T14:55:14.923Z,15.43
2019-01-11T15:00:07.810Z,12.47
2019-01-11T15:04:58.585Z,14.10
2019-01-11T15:10:12.439Z,14.93
2019-01-11T15:15:11.831Z,13.27
2019-01-11T15:20:06.068Z,15.47
2019-01-11T15:24:59.282Z,13.70
2019-01-11T15:29:52.272Z,13.33
2019-01-11T15:34:45.088Z,13.60
2019-01-11T15:39:41.540Z,25.60
2019-01-11T15:44:33.552Z,20.20
2019-01-11T15:49:27.435Z,18.27
2019-01-11T15:54:19.065Z,18.20
2019-01-11T15:59:10.357Z,25.53
2019-01-11T16:04:09.104Z,34.33
2019-01-11T16:09:39.610Z,21.77
2019-01-11T16:15:07.036Z,19.00
2019-01-11T16:20:02.112Z,31.00
2019-01-11T16:25:04.722Z,28.47
2019-01-11T16:30:06.030Z,37.37
2019-01-11T16:35:05.966Z,36.00
2019-01-11T16:40:07.013Z,18.43
2019-01-11T16:44:58.781Z,15.13
2019-01-11T16:49:59.082Z,14.93
2019-01-11T16:55:01.744Z,13.67
2019-01-11T16:59:56.911Z,15.40
2019-01-11T17:04:54.882Z,15.10
2019-01-11T17:09:57.736Z,15.60
2019-01-11T17:15:04.459Z,15.07
2019-01-11T17:20:07.748Z,14.97
2019-01-11T17:25:00.631Z,15.03
2019-01-11T17:29:55.989Z,15.47
2019-01-11T17:34:48.676Z,14.27
2019-01-11T17:39:39.490Z,15.87
2019-01-11T17:44:30.920Z,15.20
2019-01-11T17:49:23.690Z,13.77
2019-01-11T17:54:13.960Z,14.93
2019-01-11T17:59:06.121Z,16.07
2019-01-11T18:03:58.412Z,17.83
2019-01-11T18:08:49.976Z,16.23
2019-01-11T18:13:42.650Z,19.87
2019-01-11T18:18:36.406Z,23.80
2019-01-11T18:23:30.283Z,24.27
2019-01-11T18:28:21.268Z,27.10
2019-01-11T18:33:12.335Z,26.67
2019-01-11T18:38:04.214Z,22.90
2019-01-11T18:43:26.358Z,28.00
2019-01-11T18:48:55.691Z,26.67
2019-01-11T18:54:34.613Z,46.17
2019-01-11T19:00:11.696Z,42.47
2019-01-11T19:05:43.898Z,49.73
2019-01-11T19:11:19.655Z,45.43
2019-01-11T19:16:56.461Z,31.90
2019-01-11T19:22:12.004Z,37.77
2019-01-11T19:28:10.480Z,36.63
2019-01-11T19:33:35.042Z,43.53
2019-01-11T19:51:03.480Z,46.20
2019-01-11T20:02:38.722Z,55.03
2019-01-11T20:19:14.393Z,38.67
2019-01-11T20:24:36.898Z,28.83
2019-01-11T20:29:58.042Z,21.03
2019-01-11T20:35:34.452Z,21.87
2019-01-11T20:41:15.739Z,20.10
2019-01-11T20:46:30.361Z,20.93
2019-01-11T20:51:51.696Z,19.83
2019-01-11T20:57:03.404Z,22.23
2019-01-11T21:02:35.661Z,29.00
2019-01-11T21:08:00.023Z,40.73
2019-01-11T21:13:16.041Z,37.53
2019-01-11T21:18:42.315Z,32.13
2019-01-11T21:24:17.027Z,33.63
2019-01-11T21:29:46.097Z,31.80
2019-01-11T21:35:26.279Z,38.00
2019-01-11T21:41:19.999Z,40.07
2019-01-11T21:52:57.357Z,41.47
2019-01-11T21:57:59.709Z,41.33
2019-01-11T22:03:44.574Z,34.63
2019-01-11T22:20:51.878Z,35.70
2019-01-11T22:25:43.720Z,36.20
2019-01-11T22:30:39.056Z,36.77
2019-01-11T22:36:39.563Z,46.40
2019-01-11T22:41:37.807Z,43.53
2019-01-11T22:46:29.403Z,34.87
2019-01-11T22:51:28.672Z,29.83
2019-01-11T22:56:22.308Z,35.20
2019-01-11T23:01:41.311Z,25.67
2019-01-11T23:06:55.424Z,32.43
2019-01-11T23:12:36.650Z,31.60
2019-01-11T23:17:59.663Z,31.23
2019-01-11T23:22:49.760Z,34.23
2019-01-11T23:27:41.136Z,29.13
2019-01-11T23:32:32.699Z,37.93
2019-01-11T23:37:24.031Z,31.07
2019-01-11T23:42:15.356Z,30.53
2019-01-11T23:47:06.172Z,32.83
2019-01-11T23:51:56.449Z,32.40
2019-01-11T23:56:47.276Z,42.70
